createdAt,value
2022-09-01T00:00:15.051Z,99.90
2022-09-01T00:02:45.308Z,99.90
2022-09-01T00:05:13.603Z,99.90
2022-09-01T00:07:41.671Z,99.90
2022-09-01T00:10:10.743Z,99.90
2022-09-01T00:12:39.486Z,99.90
2022-09-01T00:15:10.310Z,99.90
2022-09-01T00:17:40.179Z,99.90
2022-09-01T00:20:09.548Z,99.90
2022-09-01T00:22:37.875Z,99.90
2022-09-01T00:25:08.002Z,99.90
2022-09-01T00:27:36.712Z,99.90
2022-09-01T00:30:06.293Z,99.90
2022-09-01T00:32:34.331Z,99.90
2022-09-01T00:35:03.787Z,99.90
2022-09-01T00:37:31.814Z,99.90
2022-09-01T00:39:59.803Z,99.90
2022-09-01T00:42:27.893Z,99.90
2022-09-01T00:44:55.880Z,99.90
2022-09-01T00:47:23.885Z,99.90
2022-09-01T00:49:53.170Z,99.90
2022-09-01T00:52:27.366Z,99.90
2022-09-01T00:54:59.178Z,99.90
2022-09-01T00:57:28.215Z,99.90
2022-09-01T01:00:00.219Z,99.90
2022-09-01T01:02:28.385Z,99.90
2022-09-01T01:05:00.738Z,99.90
2022-09-01T01:07:30.369Z,99.90
2022-09-01T01:09:58.616Z,99.90
2022-09-01T01:12:30.841Z,99.90
2022-09-01T01:14:58.918Z,99.90
2022-09-01T01:17:27.003Z,99.90
2022-09-01T01:20:14.618Z,99.90
2022-09-01T01:23:06.371Z,99.90
2022-09-01T01:25:40.189Z,99.90
2022-09-01T01:28:13.386Z,99.90
2022-09-01T01:30:43.518Z,99.90
2022-09-01T01:33:11.907Z,99.90
2022-09-01T01:35:41.964Z,99.90
2022-09-01T01:38:11.238Z,99.90
2022-09-01T01:40:41.552Z,99.90
2022-09-01T01:43:12.207Z,99.90
2022-09-01T01:45:40.303Z,99.90
2022-09-01T01:48:08.699Z,99.90
2022-09-01T01:50:37.898Z,99.90
2022-09-01T01:53:11.259Z,99.90
2022-09-01T01:55:41.895Z,99.90
2022-09-01T01:58:12.229Z,99.90
2022-09-01T02:00:42.898Z,99.90
2022-09-01T02:03:12.865Z,99.90
2022-09-01T02:05:41.465Z,99.90
2022-09-01T02:08:11.643Z,99.90
2022-09-01T02:10:44.745Z,99.90
2022-09-01T02:13:16.514Z,99.90
2022-09-01T02:15:47.697Z,99.90
2022-09-01T02:18:18.861Z,99.90
2022-09-01T02:20:49.449Z,99.90
2022-09-01T02:23:23.465Z,99.90
2022-09-01T02:28:45.818Z,99.90
2022-09-01T02:31:14.047Z,99.90
2022-09-01T02:33:45.637Z,99.90
2022-09-01T02:36:17.331Z,99.90
2022-09-01T02:38:46.709Z,99.90
2022-09-01T02:41:25.240Z,99.90
2022-09-01T02:43:54.233Z,99.90
2022-09-01T02:46:24.584Z,99.90
2022-09-01T02:48:53.602Z,99.90
2022-09-01T02:51:25.765Z,99.90
2022-09-01T02:53:55.121Z,99.90
2022-09-01T02:56:27.556Z,99.90
2022-09-01T02:58:56.511Z,99.90
2022-09-01T03:01:26.481Z,99.90
2022-09-01T03:03:56.626Z,99.90
2022-09-01T03:06:25.864Z,99.90
2022-09-01T03:08:55.715Z,99.90
2022-09-01T03:11:25.538Z,99.90
2022-09-01T03:13:54.206Z,99.90
2022-09-01T03:16:23.536Z,99.90
2022-09-01T03:18:52.577Z,99.90
2022-09-01T03:21:21.197Z,99.90
2022-09-01T03:23:50.313Z,99.90
2022-09-01T03:26:21.081Z,99.90
2022-09-01T03:28:51.408Z,99.90
2022-09-01T03:31:20.863Z,99.90
2022-09-01T03:33:49.300Z,99.90
2022-09-01T03:36:20.141Z,99.90
2022-09-01T03:38:49.954Z,99.90
2022-09-01T03:41:19.707Z,99.90
2022-09-01T03:43:48.452Z,99.90
2022-09-01T03:46:21.750Z,99.90
2022-09-01T03:48:51.347Z,99.90
2022-09-01T03:51:20.999Z,99.90
2022-09-01T03:53:49.300Z,99.90
2022-09-01T03:56:17.350Z,99.90
2022-09-01T03:58:47.262Z,99.90
2022-09-01T04:01:17.502Z,99.90
2022-09-01T04:03:49.134Z,99.90
2022-09-01T04:06:19.342Z,99.90
2022-09-01T04:08:47.961Z,99.90
2022-09-01T04:11:19.034Z,99.90
2022-09-01T04:13:48.263Z,99.90
2022-09-01T04:16:41.269Z,99.90
2022-09-01T04:19:20.113Z,99.90
2022-09-01T04:21:50.530Z,99.90
2022-09-01T04:24:19.924Z,99.90
2022-09-01T04:26:49.708Z,99.90
2022-09-01T04:29:19.794Z,99.90
2022-09-01T04:31:53.541Z,99.90
2022-09-01T04:34:22.480Z,99.90
2022-09-01T04:36:54.219Z,99.90
2022-09-01T04:39:22.826Z,99.90
2022-09-01T04:41:51.222Z,99.90
2022-09-01T04:44:20.199Z,99.90
2022-09-01T04:46:50.791Z,99.90
2022-09-01T04:49:22.490Z,99.90
2022-09-01T04:51:54.193Z,99.90
2022-09-01T04:54:23.799Z,99.90
2022-09-01T04:56:55.025Z,99.90
2022-09-01T04:59:27.329Z,99.90
2022-09-01T05:01:57.535Z,99.90
2022-09-01T05:04:28.214Z,99.90
2022-09-01T05:06:59.814Z,99.90
2022-09-01T05:09:29.925Z,99.90
2022-09-01T05:12:01.912Z,99.90
2022-09-01T05:14:30.759Z,99.90
2022-09-01T05:17:01.888Z,99.90
2022-09-01T05:19:30.857Z,99.90
2022-09-01T05:22:00.043Z,99.90
2022-09-01T05:24:32.106Z,99.90
2022-09-01T05:27:00.610Z,99.90
2022-09-01T05:29:29.742Z,99.90
2022-09-01T05:31:58.762Z,99.90
2022-09-01T05:34:29.730Z,99.90
2022-09-01T05:37:00.162Z,99.90
2022-09-01T05:39:28.667Z,99.90
2022-09-01T05:41:57.260Z,99.90
2022-09-01T05:44:25.391Z,99.90
2022-09-01T05:46:55.796Z,99.90
2022-09-01T05:49:24.710Z,99.90
2022-09-01T05:51:58.912Z,99.90
2022-09-01T05:54:29.191Z,99.90
2022-09-01T05:57:12.785Z,99.90
2022-09-01T05:59:42.098Z,99.90
2022-09-01T06:02:10.226Z,99.90
2022-09-01T06:04:44.217Z,99.90
2022-09-01T06:07:16.394Z,99.90
2022-09-01T06:09:48.187Z,99.90
2022-09-01T06:12:21.735Z,99.90
2022-09-01T06:14:51.391Z,99.90
2022-09-01T06:17:24.939Z,99.90
2022-09-01T06:19:54.886Z,99.90
2022-09-01T06:22:25.699Z,99.90
2022-09-01T06:24:59.575Z,99.90
2022-09-01T06:27:30.225Z,99.90
2022-09-01T06:29:58.659Z,99.90
2022-09-01T06:32:27.184Z,99.90
2022-09-01T06:34:58.219Z,99.90
2022-09-01T06:37:28.876Z,99.90
2022-09-01T06:39:57.605Z,99.90
2022-09-01T06:42:26.150Z,99.90
2022-09-01T06:44:54.564Z,99.90
2022-09-01T06:47:22.589Z,99.90
2022-09-01T06:49:52.672Z,99.90
2022-09-01T06:52:24.121Z,99.90
2022-09-01T06:54:55.049Z,99.90
2022-09-01T07:00:18.882Z,99.90
2022-09-01T07:02:48.652Z,99.90
2022-09-01T07:08:14.276Z,99.90
2022-09-01T07:13:35.678Z,99.90
2022-09-01T07:18:59.004Z,99.90
2022-09-01T07:22:06.646Z,99.90
2022-09-01T07:24:18.175Z,99.90
2022-09-01T07:26:51.077Z,99.90
2022-09-01T07:29:21.851Z,99.90
2022-09-01T07:32:41.178Z,99.90
2022-09-01T07:34:39.725Z,99.90
2022-09-01T07:37:17.320Z,99.90
2022-09-01T07:39:56.637Z,99.90
2022-09-01T07:45:32.408Z,99.90
2022-09-01T07:48:06.592Z,99.90
2022-09-01T07:50:41.361Z,99.90
2022-09-01T07:53:26.524Z,99.90
2022-09-01T07:55:57.226Z,99.90
2022-09-01T07:58:29.483Z,99.90
2022-09-01T08:01:00.168Z,99.90
2022-09-01T08:03:28.152Z,99.90
2022-09-01T08:06:00.834Z,99.90
2022-09-01T08:08:29.553Z,99.90
2022-09-01T08:11:05.299Z,99.90
2022-09-01T08:13:41.737Z,99.90
2022-09-01T08:16:18.578Z,99.90
2022-09-01T08:18:48.793Z,99.90
2022-09-01T08:21:22.009Z,99.90
2022-09-01T08:23:50.651Z,99.90
2022-09-01T08:26:20.695Z,99.90
2022-09-01T08:28:57.935Z,99.90
2022-09-01T08:31:30.755Z,99.90
2022-09-01T08:34:00.064Z,99.90
2022-09-01T08:36:28.167Z,99.90
2022-09-01T08:38:56.160Z,99.90
2022-09-01T08:41:35.420Z,99.90
2022-09-01T08:44:14.951Z,99.90
2022-09-01T08:46:44.023Z,99.90
2022-09-01T08:49:26.213Z,99.90
2022-09-01T08:52:01.750Z,99.90
2022-09-01T08:54:38.169Z,99.90
2022-09-01T08:57:09.825Z,99.90
2022-09-01T08:59:39.250Z,99.90
2022-09-01T09:02:24.438Z,99.90
2022-09-01T09:05:01.957Z,99.90
2022-09-01T09:07:49.219Z,99.90
2022-09-01T09:10:21.233Z,99.90
2022-09-01T09:13:02.285Z,99.90
2022-09-01T09:15:38.316Z,99.90
2022-09-01T09:18:20.128Z,99.90
2022-09-01T09:21:10.887Z,99.90
2022-09-01T09:23:43.186Z,99.90
2022-09-01T09:26:16.702Z,99.90
2022-09-01T09:28:50.809Z,99.90
2022-09-01T09:31:36.563Z,99.90
2022-09-01T09:34:05.198Z,99.90
2022-09-01T09:36:36.376Z,99.90
2022-09-01T09:39:13.778Z,99.90
2022-09-01T09:41:42.511Z,99.90
2022-09-01T09:44:24.848Z,99.90
2022-09-01T09:46:54.361Z,99.90
2022-09-01T09:49:36.659Z,99.90
2022-09-01T09:52:17.501Z,99.90
2022-09-01T09:55:02.999Z,99.90
2022-09-01T09:57:32.643Z,99.90
2022-09-01T10:00:04.777Z,99.90
2022-09-01T10:02:38.061Z,99.90
2022-09-01T10:05:26.064Z,99.90
2022-09-01T10:07:56.213Z,99.90
2022-09-01T10:10:32.659Z,99.90
2022-09-01T10:13:02.374Z,99.90
2022-09-01T10:15:33.961Z,99.90
2022-09-01T10:21:02.165Z,99.90
2022-09-01T10:23:35.251Z,99.90
2022-09-01T10:26:09.492Z,99.90
2022-09-01T10:28:50.011Z,99.90
2022-09-01T10:31:20.063Z,99.90
2022-09-01T10:33:50.925Z,99.90
2022-09-01T10:36:19.955Z,99.90
2022-09-01T10:38:53.832Z,99.90
2022-09-01T10:42:00.731Z,99.90
2022-09-01T10:44:34.075Z,99.20
2022-09-01T10:47:06.418Z,99.00
2022-09-01T10:50:09.976Z,99.50
2022-09-01T10:53:08.815Z,99.00
2022-09-01T10:55:44.043Z,98.90
2022-09-01T11:02:24.931Z,97.60
2022-09-01T11:05:16.841Z,98.00
2022-09-01T11:08:09.108Z,97.60
2022-09-01T11:10:52.842Z,97.80
2022-09-01T11:13:37.099Z,97.20
2022-09-01T11:16:47.793Z,96.90
2022-09-01T11:19:44.554Z,95.70
2022-09-01T11:22:22.146Z,96.60
2022-09-01T11:25:11.553Z,97.10
2022-09-01T11:28:02.975Z,97.10
2022-09-01T11:30:52.858Z,97.10
2022-09-01T11:33:43.419Z,95.50
2022-09-01T11:36:23.506Z,95.50
2022-09-01T11:38:57.543Z,95.10
2022-09-01T11:41:33.902Z,94.40
2022-09-01T11:44:11.815Z,94.20
2022-09-01T11:46:43.673Z,93.90
2022-09-01T11:49:29.160Z,93.60
2022-09-01T11:51:57.640Z,92.70
2022-09-01T11:54:26.290Z,93.10
2022-09-01T11:56:54.725Z,92.50
2022-09-01T11:59:34.993Z,93.00
2022-09-01T12:02:04.089Z,93.30
2022-09-01T12:04:36.776Z,91.90
2022-09-01T12:07:10.682Z,91.80
2022-09-01T12:09:42.925Z,92.90
2022-09-01T12:12:30.294Z,93.50
2022-09-01T12:15:07.095Z,93.00
2022-09-01T12:17:35.542Z,93.00
2022-09-01T12:20:28.900Z,92.90
2022-09-01T12:22:58.204Z,92.40
2022-09-01T12:25:28.482Z,91.70
2022-09-01T12:27:58.666Z,92.40
2022-09-01T12:30:28.840Z,92.80
2022-09-01T12:35:46.859Z,92.30
2022-09-01T12:38:25.232Z,92.60
2022-09-01T12:40:55.309Z,92.70
2022-09-01T12:43:37.097Z,92.60
2022-09-01T12:46:10.859Z,92.80
2022-09-01T12:48:41.403Z,92.40
2022-09-01T12:51:26.534Z,91.30
2022-09-01T12:54:04.498Z,91.40
2022-09-01T12:56:34.639Z,91.40
2022-09-01T12:59:16.031Z,91.30
2022-09-01T13:01:47.626Z,91.00
2022-09-01T13:04:28.470Z,91.00
2022-09-01T13:07:01.151Z,91.00
2022-09-01T13:09:29.622Z,90.60
2022-09-01T13:12:17.979Z,90.60
2022-09-01T13:14:46.251Z,90.10
2022-09-01T13:17:16.326Z,90.60
2022-09-01T13:19:44.379Z,89.60
2022-09-01T13:22:12.611Z,90.00
2022-09-01T13:24:40.979Z,88.50
2022-09-01T13:27:24.487Z,88.40
2022-09-01T13:29:52.909Z,87.90
2022-09-01T13:32:24.007Z,88.30
2022-09-01T13:34:54.726Z,87.20
2022-09-01T13:37:23.970Z,86.20
2022-09-01T13:39:52.374Z,86.30
2022-09-01T13:42:20.766Z,85.90
2022-09-01T13:44:52.616Z,86.50
2022-09-01T13:47:29.551Z,86.10
2022-09-01T13:50:07.607Z,85.30
2022-09-01T13:52:37.143Z,84.70
2022-09-01T13:55:06.054Z,85.20
2022-09-01T13:57:36.566Z,85.60
2022-09-01T14:00:07.871Z,87.00
2022-09-01T14:02:37.443Z,86.60
2022-09-01T14:05:06.138Z,84.80
2022-09-01T14:07:34.168Z,84.40
2022-09-01T14:10:02.755Z,85.00
2022-09-01T14:12:32.066Z,83.90
2022-09-01T14:15:17.815Z,85.80
2022-09-01T14:17:49.691Z,85.30
2022-09-01T14:20:19.566Z,86.40
2022-09-01T14:22:48.290Z,85.20
2022-09-01T14:25:17.679Z,84.90
2022-09-01T14:27:46.991Z,83.80
2022-09-01T14:30:18.107Z,83.90
2022-09-01T14:32:47.644Z,84.10
2022-09-01T14:35:17.765Z,84.40
2022-09-01T14:37:45.961Z,83.10
2022-09-01T14:40:17.274Z,82.80
2022-09-01T14:42:49.372Z,84.60
2022-09-01T14:45:19.630Z,82.50
2022-09-01T14:47:53.752Z,82.00
2022-09-01T14:50:23.691Z,82.70
2022-09-01T14:52:54.544Z,83.80
2022-09-01T14:55:23.749Z,83.70
2022-09-01T14:57:52.245Z,84.50
2022-09-01T15:00:21.214Z,84.00
2022-09-01T15:02:50.568Z,83.80
2022-09-01T15:05:18.618Z,83.70
2022-09-01T15:07:46.763Z,83.80
2022-09-01T15:10:24.959Z,83.70
2022-09-01T15:12:54.989Z,83.50
2022-09-01T15:15:23.623Z,83.50
2022-09-01T15:17:53.127Z,83.00
2022-09-01T15:20:38.452Z,83.20
2022-09-01T15:23:07.117Z,83.00
2022-09-01T15:25:35.466Z,83.90
2022-09-01T15:28:03.979Z,84.70
2022-09-01T15:30:31.984Z,83.60
2022-09-01T15:33:01.333Z,85.00
2022-09-01T15:35:32.596Z,85.30
2022-09-01T15:38:01.034Z,84.50
2022-09-01T15:40:29.639Z,82.90
2022-09-01T15:43:00.112Z,82.90
2022-09-01T15:45:29.968Z,83.10
2022-09-01T15:47:58.097Z,83.00
2022-09-01T15:50:28.181Z,83.30
2022-09-01T15:52:58.628Z,84.00
2022-09-01T15:55:29.091Z,83.70
2022-09-01T15:57:57.447Z,83.60
2022-09-01T16:00:27.819Z,82.60
2022-09-01T16:02:56.636Z,83.40
2022-09-01T16:05:25.135Z,83.30
2022-09-01T16:10:30.415Z,83.50
2022-09-01T16:13:01.523Z,83.80
2022-09-01T16:15:29.800Z,84.30
2022-09-01T16:18:15.127Z,84.00
2022-09-01T16:20:50.998Z,83.10
2022-09-01T16:23:22.676Z,83.40
2022-09-01T16:25:54.290Z,83.50
2022-09-01T16:28:27.408Z,83.00
2022-09-01T16:31:00.550Z,82.30
2022-09-01T16:33:28.782Z,82.70
2022-09-01T16:36:08.032Z,83.30
2022-09-01T16:38:45.405Z,83.80
2022-09-01T16:41:36.162Z,84.00
2022-09-01T16:44:18.891Z,84.50
2022-09-01T16:46:54.110Z,84.70
2022-09-01T16:49:28.085Z,85.20
2022-09-01T16:52:03.810Z,86.10
2022-09-01T16:54:47.338Z,86.40
2022-09-01T16:57:26.373Z,86.60
2022-09-01T16:59:56.951Z,86.80
2022-09-01T17:02:38.453Z,87.30
2022-09-01T17:05:17.943Z,87.90
2022-09-01T17:07:52.463Z,87.90
2022-09-01T17:10:34.473Z,88.20
2022-09-01T17:13:17.253Z,88.60
2022-09-01T17:15:51.859Z,89.00
2022-09-01T17:18:29.564Z,88.90
2022-09-01T17:21:03.183Z,89.10
2022-09-01T17:23:39.819Z,89.60
2022-09-01T17:26:18.283Z,89.90
2022-09-01T17:28:52.085Z,89.90
2022-09-01T17:31:34.994Z,90.00
2022-09-01T17:34:15.603Z,90.20
2022-09-01T17:36:52.131Z,90.60
2022-09-01T17:39:33.436Z,90.50
2022-09-01T17:42:11.118Z,90.60
2022-09-01T17:44:46.323Z,90.60
2022-09-01T17:47:21.354Z,90.70
2022-09-01T17:49:57.825Z,90.80
2022-09-01T17:52:39.973Z,91.20
2022-09-01T17:55:20.846Z,91.00
2022-09-01T17:57:54.626Z,91.00
2022-09-01T18:00:24.917Z,91.40
2022-09-01T18:03:22.642Z,91.30
2022-09-01T18:06:00.267Z,91.30
2022-09-01T18:08:34.799Z,91.70
2022-09-01T18:11:07.116Z,91.80
2022-09-01T18:13:53.779Z,91.90
2022-09-01T18:16:25.744Z,92.10
2022-09-01T18:18:54.960Z,92.20
2022-09-01T18:21:26.165Z,92.20
2022-09-01T18:24:02.667Z,92.30
2022-09-01T18:26:36.265Z,92.40
2022-09-01T18:29:07.209Z,92.50
2022-09-01T18:32:03.142Z,92.50
2022-09-01T18:34:48.187Z,92.40
2022-09-01T18:37:25.906Z,92.50
2022-09-01T18:40:03.943Z,92.50
2022-09-01T18:42:38.564Z,92.70
2022-09-01T18:45:16.028Z,92.70
2022-09-01T18:47:57.680Z,92.80
2022-09-01T18:50:33.527Z,92.70
2022-09-01T18:53:17.727Z,92.50
2022-09-01T18:55:51.831Z,92.60
2022-09-01T18:58:33.099Z,92.70
2022-09-01T19:01:07.167Z,92.60
2022-09-01T19:03:41.425Z,92.80
2022-09-01T19:06:30.252Z,92.70
2022-09-01T19:09:20.164Z,92.50
2022-09-01T19:12:03.811Z,92.50
2022-09-01T19:14:41.950Z,92.80
2022-09-01T19:17:25.971Z,92.40
2022-09-01T19:19:58.995Z,92.50
2022-09-01T19:22:37.365Z,92.50
2022-09-01T19:25:26.757Z,92.50
2022-09-01T19:27:59.212Z,92.60
2022-09-01T19:30:27.359Z,92.70
2022-09-01T19:32:59.167Z,92.80
2022-09-01T19:35:29.313Z,92.80
2022-09-01T19:37:57.303Z,92.80
2022-09-01T19:40:31.609Z,92.90
2022-09-01T19:43:06.213Z,92.90
2022-09-01T19:45:45.055Z,92.90
2022-09-01T19:48:19.650Z,93.00
2022-09-01T19:50:54.281Z,93.00
2022-09-01T19:53:32.178Z,93.00
2022-09-01T19:56:06.072Z,93.10
2022-09-01T19:58:56.524Z,93.10
2022-09-01T20:01:35.554Z,93.10
2022-09-01T20:04:16.936Z,93.00
2022-09-01T20:06:49.264Z,93.20
2022-09-01T20:09:23.802Z,93.30
2022-09-01T20:11:56.385Z,93.30
2022-09-01T20:14:39.723Z,93.30
2022-09-01T20:17:12.971Z,93.30
2022-09-01T20:19:47.500Z,93.30
2022-09-01T20:22:31.254Z,93.40
2022-09-01T20:25:08.463Z,93.40
2022-09-01T20:27:46.950Z,93.30
2022-09-01T20:30:19.495Z,93.40
2022-09-01T20:32:55.185Z,93.50
2022-09-01T20:35:30.181Z,93.40
2022-09-01T20:38:03.882Z,93.50
2022-09-01T20:40:36.869Z,93.40
2022-09-01T20:43:18.443Z,93.50
2022-09-01T20:45:47.049Z,93.50
2022-09-01T20:48:17.406Z,93.50
2022-09-01T20:50:52.611Z,93.50
2022-09-01T20:53:34.569Z,93.60
2022-09-01T20:56:09.145Z,93.60
2022-09-01T20:58:42.891Z,93.60
2022-09-01T21:01:19.217Z,93.60
2022-09-01T21:04:05.864Z,93.70
2022-09-01T21:06:48.520Z,93.80
2022-09-01T21:09:25.667Z,93.80
2022-09-01T21:12:01.130Z,93.90
2022-09-01T21:14:41.904Z,93.80
2022-09-01T21:17:17.492Z,93.80
2022-09-01T21:19:53.159Z,93.90
2022-09-01T21:22:22.686Z,93.90
2022-09-01T21:24:51.177Z,93.90
2022-09-01T21:27:22.648Z,93.90
2022-09-01T21:30:00.680Z,94.00
2022-09-01T21:32:30.647Z,93.90
2022-09-01T21:34:58.996Z,94.10
2022-09-01T21:37:29.600Z,94.00
2022-09-01T21:39:58.186Z,94.00
2022-09-01T21:42:30.473Z,94.10
2022-09-01T21:44:59.651Z,94.10
2022-09-01T21:47:28.426Z,94.10
2022-09-01T21:49:56.818Z,94.10
2022-09-01T21:52:24.912Z,94.20
2022-09-01T21:54:54.425Z,94.20
2022-09-01T21:57:23.118Z,94.20
2022-09-01T21:59:51.425Z,94.30
2022-09-01T22:02:20.510Z,94.20
2022-09-01T22:04:48.860Z,94.40
2022-09-01T22:07:18.714Z,94.30
2022-09-01T22:09:47.122Z,94.40
2022-09-01T22:12:16.543Z,94.50
2022-09-01T22:14:44.527Z,94.60
2022-09-01T22:17:12.623Z,94.50
2022-09-01T22:19:40.605Z,94.60
2022-09-01T22:22:08.957Z,94.70
2022-09-01T22:24:37.056Z,94.70
2022-09-01T22:27:05.349Z,94.70
2022-09-01T22:29:34.729Z,94.70
2022-09-01T22:32:02.899Z,94.80
2022-09-01T22:34:33.094Z,94.80
2022-09-01T22:37:01.264Z,94.80
2022-09-01T22:39:29.323Z,94.90
2022-09-01T22:41:57.465Z,95.00
2022-09-01T22:44:25.913Z,95.10
2022-09-01T22:46:55.275Z,95.00
2022-09-01T22:49:23.324Z,95.10
2022-09-01T22:51:51.448Z,95.30
2022-09-01T22:54:19.450Z,95.30
2022-09-01T22:56:49.853Z,95.20
2022-09-01T22:59:17.859Z,95.40
2022-09-01T23:01:47.622Z,95.40
2022-09-01T23:04:18.103Z,95.50
2022-09-01T23:06:49.492Z,95.50
2022-09-01T23:09:18.664Z,95.40
2022-09-01T23:11:47.171Z,95.60
2022-09-01T23:14:15.346Z,95.70
2022-09-01T23:16:43.731Z,96.00
2022-09-01T23:19:12.014Z,95.60
2022-09-01T23:21:41.423Z,95.60
2022-09-01T23:24:09.749Z,95.70
2022-09-01T23:26:37.850Z,95.70
2022-09-01T23:29:06.629Z,95.70
2022-09-01T23:31:36.980Z,95.70
2022-09-01T23:34:07.181Z,96.10
2022-09-01T23:36:35.207Z,95.60
2022-09-01T23:39:05.218Z,95.70
2022-09-01T23:41:34.911Z,95.70
2022-09-01T23:44:06.041Z,95.70
2022-09-01T23:46:36.987Z,95.80
2022-09-01T23:49:05.840Z,95.70
2022-09-01T23:51:34.344Z,95.80
2022-09-01T23:54:02.550Z,95.70
2022-09-01T23:56:32.311Z,95.60
2022-09-01T23:59:01.108Z,95.70
